• Join FlightAware (Why Join?)
  • Login
  • US Flag 
07:17AM EDT


 

Airport Tracker/Info


-or-


 

Live Flight TrackerFlight Track Log ✈ G-BNLX ✈ 18-Mar-2014 ✈ KMIA - EGLL / LHR

Flight Track Log - Related Links

Times and Time Zones

All times are in EDT time to prevent confusion due to time zone crossing. See the G-BNLX flight status page for this flight to view local times or setup timezone preferences in your user account.

Time Position Orientation Groundspeed Altitude Reporting Facility
EDT Latitude Longitude Course Direction KTS MPH feet Rate Location/Type
06:26PM 25.7853 -80.3242 283° West 184 212 700  Level Miami Center
06:27PM 25.7994 -80.3914 283° West 200 230 2,000 1,200 Climbing Miami Center
06:27PM 25.8097 -80.4325 286° West 260 299 2,700 1,800 Climbing Miami Center
06:28PM 25.8189 -80.4686 286° West 244 281 3,900 2,700 Climbing Miami Center
06:28PM 25.8492 -80.5028 315° West 280 322 5,500 3,240 Climbing Miami Center
06:29PM 25.9028 -80.4919 10° North 312 359 7,300 2,460 Climbing Miami Center
06:29PM 25.9261 -80.4811 23° Northeast 326 375 7,800 1,920 Climbing Miami Center
06:30PM 25.9758 -80.4356 39° Northeast 345 397 9,300 2,160 Climbing Miami Center
06:30PM 25.9833 -80.4067 74° East 359 413 10,000 1,500 Climbing Miami Center
06:31PM 25.9931 -80.3247 82° East 363 418 10,900 1,440 Climbing Miami Center
06:32PM 25.9981 -80.1992 87° East 399 459 12,700 1,860 Climbing Miami Center
06:33PM 26.0019 -80.0689 88° East 418 481 14,800 1,920 Climbing Miami Center
06:34PM 26.0083 -79.9375 87° East 421 484 16,700 1,680 Climbing Miami Center
06:35PM 26.0172 -79.8019 86° East 436 502 18,300 1,560 Climbing Miami Center
06:36PM 26.1092 -79.6739 51° Northeast 446 513 20,000 1,500 Climbing Miami Center
06:37PM 26.2044 -79.5789 42° Northeast 458 527 21,500 1,380 Climbing Miami Center
06:38PM 26.3019 -79.4825 42° Northeast 464 534 22,900 1,080 Climbing Miami Center
06:43PM 26.8636 -78.9218 42° Northeast 537 618 28,700 1,080 Climbing FlightAware ADS-B (KMCO)
06:45PM 27.0025 -78.7809 42° Northeast 547 629 29,900 960 Climbing FlightAware ADS-B (KMCO)
06:45PM 27.0805 -78.7026 42° Northeast 549 632 30,600 1,260 Climbing FlightAware ADS-B (KMCO)
06:46PM 27.1375 -78.6455 42° Northeast 547 629 31,400 1,500 Climbing FlightAware ADS-B (KMCO)
06:46PM 27.1929 -78.5884 42° Northeast 542 624 32,100 1,260 Climbing FlightAware ADS-B (KMCO)
06:47PM 27.2502 -78.5302 42° Northeast 541 623 32,700 1,020 Climbing FlightAware ADS-B (KMCO)
06:47PM 27.3208 -78.4602 42° Northeast 543 625 33,300 780 Climbing FlightAware ADS-B (KMCO)
06:48PM 27.4206 -78.3572 45° Northeast 543 625 34,000 300 Climbing Miami Center
06:49PM 27.5106 -78.2647 42° Northeast 544 626 34,000  Level Miami Center
06:50PM 27.6453 -78.1267 42° Northeast 547 629 34,000  Level Miami Center
06:52PM 27.7569 -78.0125 42° Northeast 544 626 34,000  Level Miami Center
06:53PM 27.8667 -77.9000 42° Northeast 537 618 34,000  Level Miami Center
06:54PM 27.9684 -77.7857 45° Northeast  Level FlightAware Approximate
06:54PM 27.9975 -77.7653 42° Northeast 534 615 34,000  Level Miami Center
06:55PM 28.1067 -77.6519 42° Northeast 534 615 34,000  Level Miami Center
06:56PM 28.1928 -77.5114 55° Northeast 541 623 34,000  Level Miami Center
06:57PM 28.2731 -77.3639 58° Northeast 546 628 34,000  Level Miami Center
06:58PM 28.3539 -77.2150 58° Northeast 551 634 34,000  Level Miami Center
06:59PM 28.4344 -77.0681 58° Northeast 551 634 34,000  Level Miami Center
07:00PM 28.5161 -76.9183 58° Northeast 552 635 34,000  Level Miami Center
07:00PM 28.7167 -76.5667 50° Northeast 527 606 34,000  Level New York Oceanic (ODAPS)
07:01PM 28.6125 -76.7389 50° Northeast 553 636 34,000  Level Miami Center
07:02PM 28.6944 -76.5906 58° Northeast 553 636 34,000  Level Miami Center
07:03PM 28.7833 -76.4519 54° Northeast 550 633 34,000  Level Miami Center
07:04PM 28.8814 -76.3244 49° Northeast 548 631 34,000  Level Miami Center
07:24PM 30.5833 -73.9500 51° Northeast 533 613 34,000  Level New York Oceanic (ODAPS)
07:39PM 32.0500 -71.7833 52° Northeast 535 616 34,000  Level New York Oceanic (ODAPS)
07:53PM 33.3000 -69.8167 53° Northeast 541 623 34,000  Level New York Oceanic (ODAPS)
07:54PM 33.4819 -69.5229 54° Northeast 535 616 34,000  Level FlightAware Transoceanic
07:55PM 33.5726 -69.3756 54° Northeast 535 616 34,000  Level FlightAware Transoceanic
07:56PM 33.6631 -69.2280 54° Northeast 535 616 34,000  Level FlightAware Transoceanic
07:57PM 33.7534 -69.0800 54° Northeast 535 616 34,000  Level FlightAware Transoceanic
07:58PM 33.8436 -68.9318 54° Northeast 535 616 34,000  Level FlightAware Transoceanic
07:59PM 33.9336 -68.7832 54° Northeast 535 616 34,000  Level FlightAware Transoceanic
08:00PM 34.1000 -68.5068 54° Northeast 541 623 34,000  Level FlightAware Transoceanic
08:01PM 34.1880 -68.3597 54° Northeast 541 623 34,000  Level FlightAware Transoceanic
08:02PM 34.2759 -68.2123 54° Northeast 541 623 34,000  Level FlightAware Transoceanic
08:03PM 34.3636 -68.0647 54° Northeast 541 623 34,000  Level FlightAware Transoceanic
08:04PM 34.4511 -67.9167 54° Northeast 541 623 34,000  Level FlightAware Transoceanic
08:05PM 34.5384 -67.7684 54° Northeast 541 623 34,000  Level FlightAware Transoceanic
08:06PM 34.6255 -67.6198 55° Northeast 541 623 34,000  Level FlightAware Transoceanic
08:07PM 34.7125 -67.4709 55° Northeast 541 623 34,000  Level FlightAware Transoceanic
08:08PM 34.7993 -67.3216 55° Northeast 541 623 34,000  Level FlightAware Transoceanic
08:09PM 34.8859 -67.1721 55° Northeast 541 623 34,000  Level FlightAware Transoceanic
08:10PM 34.9723 -67.0222 55° Northeast 541 623 34,000  Level FlightAware Transoceanic
08:11PM 35.0585 -66.8721 55° Northeast 541 623 34,000  Level FlightAware Transoceanic
08:12PM 35.1446 -66.7216 55° Northeast 541 623 34,000  Level FlightAware Transoceanic
08:13PM 35.2304 -66.5708 55° Northeast 541 623 34,000  Level FlightAware Transoceanic
08:14PM 35.3161 -66.4196 55° Northeast 541 623 34,000  Level FlightAware Transoceanic
08:15PM 35.4016 -66.2682 55° Northeast 541 623 34,000  Level FlightAware Transoceanic
08:16PM 35.4869 -66.1164 55° Northeast 541 623 34,000  Level FlightAware Transoceanic
08:17PM 35.5720 -65.9643 56° Northeast 541 623 34,000  Level FlightAware Transoceanic
08:18PM 35.6569 -65.8119 56° Northeast 541 623 34,000  Level FlightAware Transoceanic
08:19PM 35.7416 -65.6592 56° Northeast 541 623 34,000  Level FlightAware Transoceanic
08:20PM 35.8261 -65.5061 56° Northeast 541 623 34,000  Level FlightAware Transoceanic
08:21PM 35.9104 -65.3527 56° Northeast 541 623 34,000  Level FlightAware Transoceanic
08:22PM 35.9946 -65.1990 56° Northeast 541 623 34,000  Level FlightAware Transoceanic
08:23PM 36.0785 -65.0449 56° Northeast 541 623 34,000  Level FlightAware Transoceanic
08:24PM 36.1622 -64.8906 56° Northeast 541 623 34,000  Level FlightAware Transoceanic
08:25PM 36.2458 -64.7359 56° Northeast 541 623 34,000  Level FlightAware Transoceanic
08:26PM 36.3291 -64.5808 56° Northeast 541 623 34,000  Level FlightAware Transoceanic
08:27PM 36.4123 -64.4255 56° Northeast 541 623 34,000  Level FlightAware Transoceanic
08:28PM 36.4952 -64.2698 57° Northeast 541 623 34,000  Level FlightAware Transoceanic
08:29PM 36.5779 -64.1137 57° Northeast 541 623 34,000  Level FlightAware Transoceanic
08:30PM 36.6605 -63.9574 57° Northeast 541 623 34,000  Level FlightAware Transoceanic
08:31PM 36.7428 -63.8007 57° Northeast 541 623 34,000  Level FlightAware Transoceanic
08:32PM 36.8249 -63.6436 57° Northeast 541 623 34,000  Level FlightAware Transoceanic
08:33PM 36.9068 -63.4862 57° Northeast 541 623 34,000  Level FlightAware Transoceanic
08:34PM 36.9885 -63.3285 57° Northeast 541 623 34,000  Level FlightAware Transoceanic
08:35PM 37.0700 -63.1705 57° Northeast 541 623 34,000  Level FlightAware Transoceanic
08:36PM 37.1513 -63.0121 57° Northeast 541 623 34,000  Level FlightAware Transoceanic
08:37PM 37.2324 -62.8534 57° Northeast 541 623 34,000  Level FlightAware Transoceanic
08:38PM 37.3133 -62.6943 57° Northeast 541 623 34,000  Level FlightAware Transoceanic
08:39PM 37.3939 -62.5349 58° Northeast 541 623 34,000  Level FlightAware Transoceanic
08:40PM 37.4743 -62.3751 58° Northeast 541 623 34,000  Level FlightAware Transoceanic
08:41PM 37.5546 -62.2150 58° Northeast 541 623 34,000  Level FlightAware Transoceanic
08:42PM 37.6346 -62.0546 58° Northeast 541 623 34,000  Level FlightAware Transoceanic
08:43PM 37.7144 -61.8938 58° Northeast 541 623 34,000  Level FlightAware Transoceanic
08:44PM 37.7939 -61.7326 58° Northeast 541 623 34,000  Level FlightAware Transoceanic
08:45PM 37.8733 -61.5711 58° Northeast 541 623 34,000  Level FlightAware Transoceanic
08:46PM 37.9524 -61.4093 58° Northeast 541 623 34,000  Level FlightAware Transoceanic
08:47PM 38.0313 -61.2471 58° Northeast 541 623 34,000  Level FlightAware Transoceanic
08:48PM 38.1100 -61.0846 58° Northeast 541 623 34,000  Level FlightAware Transoceanic
08:49PM 38.1884 -60.9217 59° Northeast 541 623 34,000  Level FlightAware Transoceanic
08:50PM 38.2667 -60.7585 59° Northeast 541 623 34,000  Level FlightAware Transoceanic
08:51PM 38.3447 -60.5949 59° Northeast 541 623 34,000  Level FlightAware Transoceanic
08:52PM 38.4225 -60.4310 59° Northeast 541 623 34,000  Level FlightAware Transoceanic
08:53PM 38.5000 -60.2667 57° Northeast 541 623 34,000  Level FlightAware Transoceanic
08:54PM 38.5880 -60.0953 57° Northeast 541 623 34,000  Level FlightAware Transoceanic
08:55PM 38.6757 -59.9236 57° Northeast 541 623 34,000  Level FlightAware Transoceanic
08:55PM 38.5000 -60.2667 57° Northeast 578 665 34,000  Level New York Oceanic (ODAPS)
09:51PM 43.0000 -50.0000 71° East 612 704 34,000  Level New York Oceanic (ODAPS)
10:22PM 43.0000 -50.0000 71° East 610 702 34,000  Level ETMS Enhanced Traffic Management System
10:34PM 45.0000 -40.0000 70° East 590 679 34,000  Level ETMS Enhanced Traffic Management System
11:19PM 47.0000 -30.0000 70° East 523 602 34,000  Level ETMS Enhanced Traffic Management System
11:20PM 47.1665 -29.4478 66° East  Level Estimated
11:21PM 47.2214 -29.2629 66° East  Level Estimated
11:22PM 47.2761 -29.0777 66° East  Level Estimated
11:23PM 47.3304 -28.8921 67° East  Level Estimated
11:24PM 47.3844 -28.7061 67° East  Level Estimated
11:25PM 47.3177 -28.9354 66° East  Level Estimated
11:26PM 47.3718 -28.7495 67° East  Level Estimated
11:27PM 47.4256 -28.5632 67° East  Level Estimated
11:28PM 47.4791 -28.3766 67° East  Level Estimated
11:29PM 47.5323 -28.1895 67° East  Level Estimated
11:30PM 47.5852 -28.0021 67° East  Level Estimated
11:31PM 47.6377 -27.8143 67° East  Level Estimated
11:32PM 47.6900 -27.6261 68° East  Level Estimated
11:33PM 47.7419 -27.4376 68° East  Level Estimated
11:34PM 47.7936 -27.2486 68° East  Level Estimated
11:35PM 47.8449 -27.0593 68° East  Level Estimated
11:36PM 47.8960 -26.8697 68° East  Level Estimated
11:37PM 47.9467 -26.6796 68° East  Level Estimated
11:38PM 47.9971 -26.4892 68° East  Level Estimated
11:39PM 48.0471 -26.2984 69° East  Level Estimated
11:40PM 48.0969 -26.1072 69° East  Level Estimated
11:41PM 48.1464 -25.9157 69° East  Level Estimated
11:42PM 48.1955 -25.7238 69° East  Level Estimated
11:43PM 48.2443 -25.5315 69° East  Level Estimated
11:44PM 48.2928 -25.3389 69° East  Level Estimated
11:45PM 48.3409 -25.1459 69° East  Level Estimated
11:46PM 48.3888 -24.9525 70° East  Level Estimated
11:47PM 48.4363 -24.7588 70° East  Level Estimated
11:48PM 48.4835 -24.5647 70° East  Level Estimated
11:49PM 48.5303 -24.3703 70° East  Level Estimated
11:50PM 48.5769 -24.1754 70° East  Level Estimated
11:51PM 48.6231 -23.9803 70° East  Level Estimated
11:52PM 48.6690 -23.7848 70° East  Level Estimated
11:53PM 48.7145 -23.5889 71° East  Level Estimated
11:54PM 48.7597 -23.3927 71° East  Level Estimated
11:55PM 48.8046 -23.1961 71° East  Level Estimated
11:56PM 48.8492 -22.9991 71° East  Level Estimated
11:57PM 48.8934 -22.8019 71° East  Level Estimated
11:58PM 48.9372 -22.6042 71° East  Level Estimated
11:59PM 48.9808 -22.4062 71° East  Level Estimated
12:00AM 49.0240 -22.2079 72° East  Level Estimated
12:01AM 49.0668 -22.0093 72° East  Level Estimated
12:02AM 49.1093 -21.8103 72° East  Level Estimated
12:03AM 49.1515 -21.6109 72° East  Level Estimated
12:04AM 49.1933 -21.4112 72° East  Level Estimated
12:05AM 49.2348 -21.2112 72° East  Level Estimated
12:06AM 49.2759 -21.0109 72° East  Level Estimated
12:07AM 49.3167 -20.8102 73° East  Level Estimated
12:08AM 49.3572 -20.6091 73° East  Level Estimated
12:09AM 49.3972 -20.4078 73° East  Level Estimated
12:10AM 49.4370 -20.2061 73° East  Level Estimated
12:11AM 49.4764 -20.0041 73° East  Level Estimated
12:12AM 49.5154 -19.8018 73° East  Level Estimated
12:13AM 49.5541 -19.5991 74° East  Level Estimated
12:14AM 49.5924 -19.3962 74° East  Level Estimated
12:15AM 49.6304 -19.1929 74° East  Level Estimated
12:16AM 49.6680 -18.9893 74° East  Level Estimated
12:17AM 49.7053 -18.7854 74° East  Level Estimated
12:18AM 49.7422 -18.5811 74° East  Level Estimated
12:19AM 49.7787 -18.3766 74° East  Level Estimated
12:20AM 49.8149 -18.1717 75° East  Level Estimated
12:21AM 49.8507 -17.9666 75° East  Level Estimated
12:22AM 49.8862 -17.7612 75° East  Level Estimated
12:23AM 49.9213 -17.5554 75° East  Level Estimated
12:24AM 49.9313 -17.3430 86° East  Level FlightAware Approximate
12:25AM 49.9410 -17.1306 86° East  Level FlightAware Approximate
12:26AM 49.9504 -16.9181 86° East  Level FlightAware Approximate
12:27AM 49.9593 -16.7054 86° East  Level FlightAware Approximate
12:28AM 49.9678 -16.4927 86° East  Level FlightAware Approximate
12:29AM 49.9759 -16.2800 87° East  Level FlightAware Approximate
12:30AM 49.9837 -16.0671 87° East  Level FlightAware Approximate
12:31AM 49.9911 -15.8542 87° East  Level FlightAware Approximate
12:32AM 49.9980 -15.6412 87° East  Level FlightAware Approximate
12:33AM 50.0046 -15.4282 87° East  Level FlightAware Approximate
12:34AM 50.0108 -15.2151 87° East  Level FlightAware Approximate
12:35AM 50.0166 -15.0020 87° East  Level FlightAware Approximate
12:36AM 50.0223 -14.7888 88° East  Level FlightAware Approximate
12:37AM 50.0277 -14.5756 88° East  Level FlightAware Approximate
12:38AM 50.0326 -14.3623 88° East  Level FlightAware Approximate
12:39AM 50.0371 -14.1490 88° East  Level FlightAware Approximate
12:40AM 50.0413 -13.9357 88° East  Level FlightAware Approximate
12:41AM 50.0451 -13.7218 88° East  Level FlightAware Approximate
12:42AM 50.0485 -13.5080 89° East  Level FlightAware Approximate
12:43AM 50.0514 -13.2941 89° East  Level FlightAware Approximate
12:44AM 50.0540 -13.0802 89° East  Level FlightAware Approximate
12:45AM 50.0562 -12.8662 89° East  Level FlightAware Approximate
12:46AM 50.0580 -12.6523 89° East  Level FlightAware Approximate
12:47AM 50.0594 -12.4383 89° East  Level FlightAware Approximate
12:48AM 50.0605 -12.2243 89° East  Level FlightAware Approximate
12:49AM 50.0611 -12.0103 90° East  Level FlightAware Approximate
12:50AM 50.0613 -11.7963 90° East  Level FlightAware Approximate
12:51AM 50.0612 -11.5823 90° East  Level FlightAware Approximate
12:52AM 50.0606 -11.3683 90° East  Level FlightAware Approximate
12:53AM 50.0597 -11.1543 90° East  Level FlightAware Approximate
12:54AM 50.0583 -10.9404 90° East  Level FlightAware Approximate
12:55AM 50.0566 -10.7264 91° East  Level FlightAware Approximate
12:56AM 50.0545 -10.5125 91° East  Level FlightAware Approximate
12:57AM 50.0519 -10.2985 91° East  Level FlightAware Approximate
12:58AM 50.0490 -10.0846 91° East  Level FlightAware Approximate
12:59AM 50.0457 -9.8708 91° East  Level FlightAware Approximate
01:00AM 50.0420 -9.6569 91° East  Level FlightAware Approximate
01:01AM 50.0379 -9.4431 92° East  Level FlightAware Approximate
01:02AM 50.0334 -9.2294 92° East  Level FlightAware Approximate
01:02AM 49.9741 -8.9926 92° East 470 541 34,000  Level FlightAware UK
01:03AM 49.9888 -8.8945 77° East 468 539 34,000  Level FlightAware UK
01:03AM 50.0030 -8.7963 77° East 466 536 34,000  Level FlightAware UK
01:04AM 50.0180 -8.6990 77° East 464 534 34,000  Level FlightAware UK
01:04AM 50.0330 -8.6022 76° East 462 532 34,000  Level FlightAware UK
01:05AM 50.0462 -8.5049 78° East 462 532 34,000  Level FlightAware UK
01:05AM 50.0607 -8.4084 77° East 462 532 34,000  Level FlightAware UK
01:06AM 50.0736 -8.3112 78° East 462 532 34,000  Level FlightAware UK
01:06AM 50.0888 -8.2151 76° East 462 532 34,000  Level FlightAware UK
01:07AM 50.1024 -8.1175 78° East 462 532 34,000  Level FlightAware UK
01:07AM 50.1165 -8.0208 77° East 460 529 34,000  Level FlightAware UK
01:08AM 50.1301 -7.9238 78° East 462 532 34,000  Level FlightAware UK
01:08AM 50.1439 -7.8269 77° East 462 532 34,000  Level FlightAware UK
01:09AM 50.1579 -7.7293 77° East 462 532 34,000  Level FlightAware UK
01:09AM 50.1715 -7.6322 78° East 462 532 34,000  Level FlightAware UK
01:10AM 50.1847 -7.5348 78° East 460 529 34,000  Level FlightAware UK
01:10AM 50.1834 -7.5343 78° East 461 531 34,000  Level FlightAware ADS-B (EGHD / PLH)
01:11AM 50.2101 -7.3395 78° East 464 534 34,000  Level FlightAware UK
01:11AM 50.2235 -7.2418 78° East 464 534 34,000  Level FlightAware UK
01:12AM 50.2323 -7.1690 78° East 464 534 34,000  Level FlightAware ADS-B (EGHD / PLH)
01:12AM 50.2378 -7.1443 77° East 464 534 34,000  Level FlightAware UK
01:12AM 50.2487 -7.0448 78° East 466 536 34,000  Level FlightAware UK
01:12AM 50.2529 -7.0148 79° East 465 535 34,000  Level FlightAware ADS-B (EGHD / PLH)
01:13AM 50.2701 -6.8832 79° East 466 536 34,000  Level FlightAware ADS-B (EGBS)
01:14AM 50.2837 -6.7774 79° East 468 539 34,000  Level FlightAware ADS-B (EGHD / PLH)
01:14AM 50.2990 -6.6584 79° East 468 539 34,000  Level FlightAware ADS-B (EGBS)
01:15AM 50.3139 -6.5490 79° East 470 541 34,000  Level FlightAware UK
01:15AM 50.3162 -6.5223 79° East 470 541 34,000  Level FlightAware ADS-B (EGBS)
01:15AM 50.3288 -6.4224 79° East 470 541 34,000  Level FlightAware ADS-B
01:16AM 50.3453 -6.2926 80° East 468 539 34,000  Level FlightAware ADS-B (EGHO)
01:16AM 50.3495 -6.2561 80° East 469 540 34,000  Level FlightAware ADS-B (EGHO)
01:17AM 50.3627 -6.1477 80° East 472 543 34,000  Level FlightAware UK
01:17AM 50.3642 -6.1392 79° East 472 543 34,000  Level FlightAware ADS-B
01:17AM 50.3765 -6.0387 79° East 471 542 34,000  Level FlightAware ADS-B (EGHD / PLH)
01:18AM 50.3907 -5.9215 80° East 471 542 34,000  Level FlightAware ADS-B (EGHO)
01:18AM 50.4004 -5.8409 79° East 472 543 34,000  Level FlightAware ADS-B (EGHD / PLH)
01:19AM 50.4111 -5.7537 79° East 473 544 34,000  Level FlightAware ADS-B (EGBS)
01:19AM 50.4236 -5.6494 80° East 474 545 34,000  Level FlightAware ADS-B (EGBS)
01:20AM 50.4355 -5.5449 80° East 474 545 34,000  Level FlightAware ADS-B (EGBS)
01:20AM 50.4476 -5.4434 80° East 475 547 34,000  Level FlightAware ADS-B (EGBS)
01:21AM 50.4600 -5.3354 80° East 475 547 34,000  Level FlightAware ADS-B (EGHO)
01:21AM 50.4733 -5.2174 80° East 476 548 34,000  Level FlightAware UK
01:21AM 50.4637 -5.3049 80° East 475 547 34,000  Level FlightAware ADS-B
01:22AM 50.4850 -5.1159 80° East 476 548 34,000  Level FlightAware UK
01:22AM 50.4858 -5.1119 80° East 475 547 34,000  Level FlightAware ADS-B (EGBS)
01:22AM 50.4983 -5.0000 80° East 475 547 34,000  Level FlightAware ADS-B (EGHO)
01:23AM 50.5107 -4.8912 80° East 476 548 34,000  Level FlightAware ADS-B (EGHD / PLH)
01:23AM 50.5164 -4.8401 80° East 476 548 34,000  Level FlightAware ADS-B
01:23AM 50.5216 -4.7928 80° East 476 548 34,000  Level FlightAware ADS-B (EGHO)
01:24AM 50.5281 -4.7347 80° East 476 548 34,000  Level FlightAware ADS-B
01:24AM 50.5339 -4.6805 80° East 476 548 34,000  Level FlightAware ADS-B (EGHD / PLH)
01:24AM 50.5395 -4.6294 80° East 477 549 34,000  Level FlightAware ADS-B
01:24AM 50.5451 -4.5781 80° East 478 550 34,000  Level FlightAware ADS-B (EGBS)
01:25AM 50.5507 -4.5268 80° East 478 550 34,000  Level FlightAware ADS-B
01:25AM 50.5499 -4.5336 80° East 478 550 34,000  Level FlightAware ADS-B (EGDX / DGX)
01:25AM 50.5536 -4.4997 80° East 478 550 34,000  Level FlightAware ADS-B (EGDX / DGX)
01:25AM 50.5620 -4.4209 81° East 478 550 34,000  Level FlightAware ADS-B
01:25AM 50.5624 -4.4176 82° East 477 549 34,000  Level FlightAware ADS-B (EGHO)
01:26AM 50.5735 -4.3184 80° East 479 551 34,000  Level FlightAware ADS-B
01:26AM 50.5736 -4.3147 81° East 479 551 34,000  Level FlightAware ADS-B
01:26AM 50.5847 -4.2083 81° East 480 552 34,000  Level FlightAware ADS-B
01:26AM 50.5862 -4.1947 81° East 480 552 34,000  Level FlightAware ADS-B
01:26AM 50.5874 -4.1845 82° East 479 551 34,000  Level FlightAware ADS-B (EGHO)
01:27AM 50.5907 -4.1536 82° East 479 551 34,000  Level FlightAware ADS-B
01:27AM 50.5960 -4.1019 81° East 480 552 34,000  Level FlightAware ADS-B
01:27AM 50.5964 -4.0983 82° East 479 551 34,000  Level FlightAware ADS-B
01:27AM 50.6011 -4.0537 82° East 479 551 34,000  Level FlightAware ADS-B
01:27AM 50.6045 -4.0194 81° East 480 552 34,000  Level FlightAware ADS-B (EGLW)
01:27AM 50.6071 -3.9951 81° East 480 552 34,000  Level FlightAware ADS-B
01:27AM 50.6082 -3.9849 82° East 479 551 34,000  Level FlightAware ADS-B
01:28AM 50.6180 -3.8884 81° East 480 552 34,000  Level FlightAware ADS-B
01:28AM 50.6226 -3.8437 81° East 479 551 34,000  Level FlightAware ADS-B (EGWE)
01:28AM 50.6270 -3.7990 82° East 478 550 34,000  Level FlightAware ADS-B
01:28AM 50.6285 -3.7854 81° East 479 551 34,000  Level FlightAware ADS-B
01:28AM 50.6305 -3.7645 82° East 478 550 34,000  Level FlightAware ADS-B
01:29AM 50.6360 -3.7099 81° East 479 551 34,000  Level FlightAware ADS-B (EGDX / DGX)
01:29AM 50.6374 -3.6960 82° East 478 550 34,000  Level FlightAware ADS-B
01:29AM 50.6394 -3.6752 81° East 479 551 34,000  Level FlightAware ADS-B
01:29AM 50.6441 -3.6308 82° East 478 550 34,000  Level FlightAware ADS-B (EGHO)
01:29AM 50.6479 -3.5929 82° East 477 549 34,000  Level FlightAware ADS-B (EGHO)
01:29AM 50.6500 -3.5723 81° East 478 550 34,000  Level FlightAware ADS-B
01:30AM 50.6583 -3.4866 81° East 477 549 34,000  Level FlightAware ADS-B
01:30AM 50.6606 -3.4660 81° East 477 549 34,000  Level FlightAware ADS-B
01:30AM 50.6609 -3.4626 82° East 476 548 34,000  Level FlightAware ADS-B (EGHO)
01:30AM 50.6657 -3.4112 81° East 477 549 34,000  Level FlightAware ADS-B
01:30AM 50.6675 -3.3942 81° East 477 549 34,000  Level FlightAware ADS-B (EGDX / DGX)
01:30AM 50.6695 -3.3736 82° East 475 547 34,000  Level FlightAware ADS-B (EGHO)
01:30AM 50.6708 -3.3631 81° East 476 548 34,000  Level FlightAware ADS-B
01:30AM 50.6720 -3.3496 82° East 475 547 34,000  Level FlightAware ADS-B
01:31AM 50.6781 -3.2880 81° East 476 548 34,000  Level FlightAware ADS-B (EGDX / DGX)
01:31AM 50.6810 -3.2571 81° East 476 548 34,000  Level FlightAware ADS-B
01:31AM 50.6823 -3.2433 82° East 475 547 34,000  Level FlightAware ADS-B (EGHO)
01:31AM 50.6856 -3.2091 81° East 476 548 34,000 -300 Level FlightAware ADS-B (EGBS)
01:31AM 50.6896 -3.1679 82° East 476 548 33,900 -360 Descending FlightAware ADS-B
01:31AM 50.6913 -3.1473 81° East 478 550 33,900 -1,140 Level FlightAware ADS-B
01:31AM 50.6927 -3.1337 81° East 478 550 33,700 -2,040 Descending FlightAware ADS-B (EGLF / FAB)
01:32AM 50.6942 -3.1199 82° East 477 549 33,600 -2,520 Descending FlightAware ADS-B (EGHO)
01:32AM 50.6971 -3.0886 81° East 483 556 33,200 -2,280 Descending FlightAware ADS-B (EGLF / FAB)
01:32AM 50.6995 -3.0644 82° East 482 555 33,000 -1,860 Descending FlightAware ADS-B
01:32AM 50.7014 -3.0436 82° East 484 557 32,800 -2,280 Descending FlightAware ADS-B
01:32AM 50.7020 -3.0365 83° East 483 556 32,700 -2,160 Descending FlightAware ADS-B (EGHO)
01:32AM 50.7061 -2.9946 83° East 482 555 32,300 -2,280 Descending FlightAware ADS-B (EGHO)
01:32AM 50.7033 -3.0225 82° East 482 555 32,100 -2,280 Descending FlightAware ADS-B (EGBS)
01:32AM 50.7113 -2.9392 82° East 481 554 31,700 -2,220 Descending FlightAware ADS-B
01:33AM 50.7170 -2.8773 82° East 476 548 31,000 -2,400 Descending FlightAware ADS-B (EGBS)
01:33AM 50.7210 -2.8328 82° East 474 545 30,500 -2,340 Descending FlightAware ADS-B
01:33AM 50.7267 -2.7716 82° East 470 541 29,800 -2,220 Descending FlightAware ADS-B (EGDM)
01:33AM 50.7310 -2.7245 82° East 467 537 29,300 -2,460 Descending FlightAware ADS-B
01:34AM 50.7368 -2.6642 82° East 464 534 28,500 -2,340 Descending FlightAware ADS-B (EGHA)
01:34AM 50.7432 -2.5911 83° East 459 528 27,800 -2,100 Descending FlightAware ADS-B (EGLW)
01:34AM 50.7436 -2.5877 82° East 465 535 27,700 -2,400 Descending FlightAware ADS-B
01:34AM 50.7442 -2.5777 86° East 458 527 27,600 -2,280 Descending FlightAware ADS-B (EGHO)
01:34AM 50.7447 -2.5677 89° East 459 528 27,400 -1,500 Descending FlightAware ADS-B
01:34AM 50.7448 -2.5410 90° East 458 527 27,300 -1,440 Descending FlightAware ADS-B (EGHO)
01:34AM 50.7439 -2.5177 82° East 459 528 27,100 -1,200 Descending FlightAware ADS-B (EGKA / ESH)
01:35AM 50.7430 -2.5012 95° East 455 524 27,100 -900 Level FlightAware ADS-B
01:35AM 50.7422 -2.4945 98° East 452 520 27,000 -1,500 Descending FlightAware ADS-B
01:35AM 50.7405 -2.4784 100° East 450 518 26,900 -1,080 Descending FlightAware ADS-B (EGHO)
01:35AM 50.7352 -2.4435 105° East 444 511 26,700 -1,500 Descending FlightAware ADS-B (EGDX / DGX)
01:35AM 50.7231 -2.3753 106° East 438 504 26,100 -1,800 Descending FlightAware ADS-B
01:35AM 50.7197 -2.3571 105° East 436 502 25,900 -2,280 Descending FlightAware ADS-B
01:35AM 50.7134 -2.3233 107° East 436 502 25,500 -2,040 Descending FlightAware ADS-B (EGLF / FAB)
01:36AM 50.7055 -2.2809 107° East 435 501 25,100 -1,980 Descending FlightAware ADS-B
01:36AM 50.6955 -2.2295 107° East 433 498 24,500 -1,800 Descending FlightAware ADS-B (EGLW)
01:36AM 50.6880 -2.1904 107° East 432 497 24,200 -1,320 Descending FlightAware ADS-B
01:36AM 50.6880 -2.1904 106° East 429 494 24,200 -2,040 Level FlightAware ADS-B
01:36AM 50.6844 -2.1721 106° East 428 493 24,000 -1,500 Descending FlightAware ADS-B
01:36AM 50.6830 -2.1663 106° East 429 494 24,000 -2,220 Level FlightAware ADS-B
01:37AM 50.6786 -2.1424 107° East 430 495 23,600 -1,680 Descending FlightAware ADS-B
01:37AM 50.6727 -2.1126 106° East 426 490 23,500 -1,140 Descending FlightAware ADS-B (EGHO)
01:37AM 50.6688 -2.0916 107° East 428 493 23,300 -2,040 Descending FlightAware ADS-B
01:37AM 50.6626 -2.0589 107° East 427 491 22,900 -1,800 Descending FlightAware ADS-B (EGHA)
01:37AM 50.6512 -2.0022 107° East 427 491 22,400 -1,740 Descending FlightAware ADS-B
01:37AM 50.6460 -1.9726 106° East 425 489 22,100 -1,800 Descending FlightAware ADS-B
01:38AM 50.6361 -1.9219 106° East 424 488 21,600 -1,680 Descending FlightAware ADS-B
01:38AM 50.6338 -1.9101 107° East 426 490 21,500 -1,740 Descending FlightAware ADS-B
01:38AM 50.6277 -1.8806 107° East 425 489 21,200 -1,920 Descending FlightAware ADS-B (EGHA)
01:38AM 50.6245 -1.8629 106° East 422 486 21,000 -2,040 Descending FlightAware ADS-B (EGHO)
01:38AM 50.6232 -1.8568 107° East 423 487 20,900 -1,500 Descending FlightAware ADS-B
01:38AM 50.6178 -1.8275 106° East 420 483 20,700 -1,680 Descending FlightAware ADS-B (EGHO)
01:38AM 50.6164 -1.8216 107° East 421 484 20,600 -1,800 Descending FlightAware ADS-B
01:38AM 50.6116 -1.7954 106° East 418 481 20,400 -2,040 Descending FlightAware ADS-B (EGHO)
01:39AM 50.6040 -1.7574 107° East 420 483 19,900 -1,860 Descending FlightAware ADS-B (EGLF / FAB)
01:39AM 50.5985 -1.7314 107° East 418 481 19,700 -1,500 Descending FlightAware ADS-B
01:39AM 50.5975 -1.7253 106° East 416 479 19,600 -2,160 Descending FlightAware ADS-B
01:39AM 50.5890 -1.6819 106° East 414 476 19,100 -1,680 Descending FlightAware ADS-B
01:39AM 50.5863 -1.6617 101° East 412 474 19,000 -1,140 Descending FlightAware ADS-B
01:39AM 50.5854 -1.6499 95° East 408 470 18,900 -1,800 Descending FlightAware ADS-B (EGHO)
01:39AM 50.5848 -1.6320 91° East 405 466 18,700 -1,500 Descending FlightAware ADS-B
01:39AM 50.5852 -1.6146 87° East 401 461 18,600 -1,380 Descending FlightAware ADS-B
01:40AM 50.5856 -1.6059 84° East 398 458 18,500 -1,380 Descending FlightAware ADS-B (EGKA / ESH)
01:40AM 50.5874 -1.5887 79° East 394 453 18,400 -1,380 Descending FlightAware ADS-B
01:40AM 50.5887 -1.5804 77° East 391 450 18,300 -1,500 Descending FlightAware ADS-B
01:40AM 50.5889 -1.5777 75° East 390 449 18,300 -1,500 Level FlightAware ADS-B (EGHS)
01:40AM 50.5930 -1.5590 70° East 384 442 18,100 -1,500 Descending FlightAware ADS-B
01:40AM 50.5967 -1.5437 65° Northeast 378 435 18,000 -900 Descending FlightAware ADS-B
01:40AM 50.5974 -1.5412 64° Northeast 377 434 18,000  Level FlightAware ADS-B (EGHA)
01:40AM 50.5979 -1.5412 63° Northeast 377 434 18,000 -1,320 Level FlightAware ADS-B
01:40AM 50.6191 -1.4738 63° Northeast 365 420 17,400 -1,200 Descending FlightAware ADS-B
01:40AM 50.6210 -1.4667 63° Northeast 365 420 17,400 -1,680 Level FlightAware ADS-B (EGLW)
01:41AM 50.6328 -1.4314 63° Northeast 364 419 16,900 -2,040 Descending FlightAware ADS-B (EGHS)
01:41AM 50.6423 -1.4031 63° Northeast 363 418 16,500 -1,800 Descending FlightAware ADS-B
01:41AM 50.6516 -1.3751 61° Northeast 360 414 16,200 -1,200 Descending FlightAware ADS-B
01:41AM 50.6547 -1.3662 58° Northeast 357 411 16,200 -1,020 Level FlightAware ADS-B (EGLF / FAB)
01:41AM 50.6571 -1.3620 55° Northeast 354 407 16,100 -1,200 Descending FlightAware ADS-B
01:41AM 50.6591 -1.3578 54° Northeast 351 404 16,100 -600 Level FlightAware ADS-B (EGLW)
01:41AM 50.6672 -1.3423 48° Northeast 341 392 16,000 -420 Descending FlightAware ADS-B
01:41AM 50.6748 -1.3299 44° Northeast 332 382 16,000 -540 Level FlightAware ADS-B
01:42AM 50.6810 -1.3204 39° Northeast 325 374 15,900 -780 Descending FlightAware ADS-B
01:42AM 50.6840 -1.3175 38° Northeast 324 373 15,900  Level FlightAware ADS-B (EGHO)
01:42AM 50.6895 -1.3106 34° Northeast 318 366 15,900 -900 Level FlightAware ADS-B
01:42AM 50.7009 -1.2990 63° Northeast 364 419 15,700 -1,260 Descending FlightAware ADS-B (EGLF / FAB)
01:42AM 50.7020 -1.2977 33° Northeast 310 357 15,400 -1,200 Descending FlightAware ADS-B (EGHA)
01:42AM 50.7257 -1.2729 33° Northeast 310 357 15,300 -840 Descending FlightAware ADS-B
01:43AM 50.7543 -1.2438 33° Northeast 304 350 15,000 -840 Descending FlightAware ADS-B (EGDM)
01:43AM 50.7620 -1.2366 33° Northeast 303 349 14,900 -1,200 Descending FlightAware ADS-B
01:43AM 50.7661 -1.2318 33° Northeast 302 348 14,800 -780 Descending FlightAware ADS-B (EGLW)
01:43AM 50.7802 -1.2174 34° Northeast 294 338 14,700 -840 Descending FlightAware ADS-B (EGHO)
01:43AM 50.7838 -1.2139 34° Northeast 294 338 14,600 -840 Descending FlightAware ADS-B
01:43AM 50.7978 -1.1996 33° Northeast 301 346 14,500 -600 Descending FlightAware ADS-B
01:43AM 50.8088 -1.1889 34° Northeast 294 338 14,400 -960 Descending FlightAware ADS-B (EGHO)
01:43AM 50.8114 -1.1853 33° Northeast 302 348 14,300 -900 Descending FlightAware ADS-B (EGHA)
01:44AM 50.8244 -1.1722 34° Northeast 295 339 14,200 -720 Descending FlightAware ADS-B
01:44AM 50.8330 -1.1637 33° Northeast 300 345 14,100 -600 Descending FlightAware ADS-B
01:44AM 50.8500 -1.1457 34° Northeast 295 339 14,000 -720 Descending FlightAware ADS-B (EGHO)
01:44AM 50.8637 -1.1316 33° Northeast 289 333 13,800 -780 Descending FlightAware ADS-B (EGLF / FAB)
01:44AM 50.8681 -1.1270 33° Northeast 287 330 13,800 -540 Level FlightAware ADS-B
01:44AM 50.8758 -1.1190 34° Northeast 276 318 13,700 -900 Descending FlightAware ADS-B (EGHO)
01:45AM 50.8907 -1.1032 34° Northeast 271 312 13,500 -1,080 Descending FlightAware ADS-B (EGHO)
01:45AM 50.9010 -1.0933 33° Northeast 277 319 13,300 -1,200 Descending FlightAware ADS-B
01:45AM 50.9122 -1.0810 33° Northeast 276 318 13,100 -840 Descending FlightAware ADS-B (EGDM)
01:45AM 50.9333 -1.0591 33° Northeast 273 314 12,900 -780 Descending FlightAware ADS-B
01:45AM 50.9453 -1.0471 33° Northeast 271 312 12,700 -780 Descending FlightAware ADS-B (EGLW)
01:46AM 50.9653 -1.0266 33° Northeast 267 307 12,500 -840 Descending FlightAware ADS-B
01:46AM 50.9766 -1.0148 33° Northeast 267 307 12,300 -900 Descending FlightAware ADS-B (EGDM)
01:46AM 50.9930 -0.9976 34° Northeast 268 308 12,100 -720 Descending FlightAware ADS-B
01:46AM 50.9950 -0.9954 36° Northeast 262 302 12,100 -780 Level FlightAware ADS-B
01:46AM 51.0010 -0.9883 38° Northeast 272 313 12,000 -420 Descending FlightAware ADS-B
01:46AM 51.0104 -0.9751 44° Northeast 273 314 12,000  Level FlightAware ADS-B (EGLF / FAB)
01:47AM 51.0136 -0.9707 46° Northeast 273 314 12,000  Level FlightAware ADS-B
01:47AM 51.0176 -0.9635 48° Northeast 275 316 12,000 -240 Level FlightAware ADS-B (EGDM)
01:47AM 51.0348 -0.9320 48° Northeast 274 315 11,900 -480 Descending FlightAware ADS-B
01:47AM 51.0391 -0.9245 49° Northeast 273 314 11,800 -600 Descending FlightAware ADS-B
01:47AM 51.0519 -0.9019 48° Northeast 276 318 11,700 -480 Descending FlightAware ADS-B (EGLW)
01:47AM 51.0593 -0.8882 48° Northeast 277 319 11,600 -960 Descending FlightAware ADS-B
01:48AM 51.0627 -0.8820 49° Northeast 276 318 11,500 -600 Descending FlightAware ADS-B
01:48AM 51.0770 -0.8563 48° Northeast 276 318 11,400 -300 Descending FlightAware ADS-B (EGLW)
01:48AM 51.0795 -0.8518 50° Northeast 270 311 11,400 -600 Level FlightAware ADS-B (EGHO)
01:48AM 51.0862 -0.8411 48° Northeast 277 319 11,300 -600 Descending FlightAware ADS-B
01:48AM 51.0882 -0.8366 49° Northeast 276 318 11,300 -900 Level FlightAware ADS-B
01:48AM 51.0921 -0.8305 50° Northeast 270 311 11,200 -840 Descending FlightAware ADS-B
01:48AM 51.1009 -0.8137 50° Northeast 270 311 11,100 -600 Descending FlightAware ADS-B
01:48AM 51.1100 -0.7971 49° Northeast 275 316 11,000 -240 Descending FlightAware ADS-B
01:49AM 51.1284 -0.7640 49° Northeast 273 314 11,000  Level FlightAware ADS-B (EGLF / FAB)
01:49AM 51.1354 -0.7519 49° Northeast 271 312 11,000  Level FlightAware ADS-B
01:49AM 51.1347 -0.7534 48° Northeast 272 313 11,000  Level FlightAware ADS-B
01:49AM 51.1532 -0.7189 48° Northeast 271 312 11,000  Level FlightAware ADS-B (EGLF / FAB)
01:49AM 51.1605 -0.7069 48° Northeast 271 312 11,000  Level FlightAware ADS-B
01:50AM 51.1765 -0.6770 49° Northeast 271 312 11,000  Level FlightAware ADS-B
01:50AM 51.1783 -0.6741 49° Northeast 271 312 11,000  Level FlightAware ADS-B (EGLF / FAB)
01:50AM 51.1852 -0.6622 48° Northeast 271 312 11,000  Level FlightAware ADS-B
01:50AM 51.2016 -0.6325 48° Northeast 270 311 11,000  Level FlightAware ADS-B
01:50AM 51.2034 -0.6296 48° Northeast 270 311 11,000  Level FlightAware ADS-B (EGLF / FAB)
01:51AM 51.2108 -0.6163 47° Northeast 269 310 11,000 -240 Level FlightAware ADS-B
01:51AM 51.2270 -0.5882 48° Northeast 270 311 10,900 -360 Descending FlightAware ADS-B
01:51AM 51.2143 -0.6103 48° Northeast 270 311 10,900 -600 Level FlightAware ADS-B
01:51AM 51.2365 -0.5705 49° Northeast 270 311 10,800 -480 Descending FlightAware ADS-B (EGLF / FAB)
01:51AM 51.2389 -0.5675 48° Northeast 271 312 10,800 -480 Level FlightAware ADS-B
01:51AM 51.2479 -0.5510 48° Northeast 271 312 10,700 -420 Descending FlightAware ADS-B (EGLW)
01:51AM 51.2523 -0.5421 48° Northeast 271 312 10,700 -600 Level FlightAware ADS-B
01:52AM 51.2640 -0.5212 48° Northeast 272 313 10,500 -720 Descending FlightAware ADS-B
01:52AM 51.2731 -0.5048 49° Northeast 270 311 10,400 -420 Descending FlightAware ADS-B (EGLF / FAB)
01:52AM 51.2777 -0.4972 48° Northeast 270 311 10,400 -300 Level FlightAware ADS-B
01:52AM 51.2894 -0.4763 48° Northeast 270 311 10,300 -540 Descending FlightAware ADS-B
01:52AM 51.2972 -0.4614 49° Northeast 269 310 10,200 -840 Descending FlightAware ADS-B (EGLW)
01:52AM 51.3026 -0.4524 48° Northeast 269 310 10,100 -900 Descending FlightAware ADS-B
01:52AM 51.3035 -0.4511 48° Northeast 269 310 10,100 -420 Level FlightAware ADS-B
01:53AM 51.3154 -0.4288 48° Northeast 271 312 10,000 -300 Descending FlightAware ADS-B
01:53AM 51.3213 -0.4182 49° Northeast 269 310 10,000  Level FlightAware ADS-B
01:53AM 51.3245 -0.4121 53° Northeast 271 312 10,000  Level FlightAware ADS-B
01:53AM 51.3285 -0.4019 61° Northeast 275 316 10,000  Level FlightAware ADS-B
01:53AM 51.3291 -0.4001 64° Northeast 277 319 10,000  Level FlightAware ADS-B (EGLW)
01:53AM 51.3311 -0.3926 66° East 278 320 10,000  Level FlightAware ADS-B
01:53AM 51.3331 -0.3848 72° East 281 323 10,000  Level FlightAware ADS-B
01:53AM 51.3336 -0.3808 73° East 281 323 10,000  Level FlightAware ADS-B (EGKA / ESH)
01:53AM 51.3341 -0.3789 75° East 284 327 10,000  Level FlightAware ADS-B
01:53AM 51.3348 -0.3729 79° East 285 328 10,000  Level FlightAware ADS-B
01:53AM 51.3352 -0.3706 80° East 286 329 10,000  Level FlightAware ADS-B
01:53AM 51.3357 -0.3622 85° East 288 331 10,000  Level FlightAware ADS-B
01:53AM 51.3356 -0.3644 86° East 289 333 10,000  Level FlightAware ADS-B
01:53AM 51.3359 -0.3536 90° East 290 334 10,000  Level FlightAware ADS-B
01:53AM 51.3359 -0.3495 91° East 291 335 10,000  Level FlightAware ADS-B
01:53AM 51.3357 -0.3451 95° East 293 337 10,000 -1,020 Level FlightAware ADS-B
01:53AM 51.3350 -0.3387 99° East 294 338 9,900 -780 Descending FlightAware ADS-B
01:53AM 51.3336 -0.3281 105° East 296 341 9,900  Level FlightAware ADS-B
01:54AM 51.3319 -0.3197 110° East 297 342 9,900  Level FlightAware ADS-B
01:54AM 51.3309 -0.3155 110° East 295 339 9,900 -1,500 Level FlightAware ADS-B (EGHO)
01:54AM 51.3300 -0.3136 114° Southeast 299 344 9,800 -2,040 Descending FlightAware ADS-B
01:54AM 51.3290 -0.3095 117° Southeast 299 344 9,800  Level FlightAware ADS-B
01:54AM 51.3273 -0.3058 120° Southeast 298 343 9,800  Level FlightAware ADS-B
01:54AM 51.3233 -0.2947 126° Southeast 300 345 9,800  Level FlightAware ADS-B
01:54AM 51.3225 -0.2930 127° Southeast 300 345 9,800 -1,020 Level FlightAware ADS-B (EGLF / FAB)
01:54AM 51.3178 -0.2848 134° Southeast 299 344 9,700 -720 Descending FlightAware ADS-B
01:54AM 51.3143 -0.2802 139° Southeast 299 344 9,700  Level FlightAware ADS-B (EGLW)
01:54AM 51.3127 -0.2789 140° Southeast 299 344 9,700  Level FlightAware ADS-B
01:54AM 51.3164 -0.2833 139° Southeast 299 344 9,700 -780 Level FlightAware ADS-B
01:54AM 51.3033 -0.2682 153° Southeast 297 342 9,600 -1,200 Descending FlightAware ADS-B
01:54AM 51.3033 -0.2682 154° Southeast 298 343 9,600  Level FlightAware ADS-B (EGLW)
01:54AM 51.2989 -0.2655 157° South 297 342 9,600  Level FlightAware ADS-B
01:54AM 51.2955 -0.2635 164° South 294 338 9,600 -900 Level FlightAware ADS-B (EGLF / FAB)
01:54AM 51.2893 -0.2615 170° South 292 336 9,500 -600 Descending FlightAware ADS-B
01:54AM 51.2834 -0.2604 176° South 289 333 9,500 -600 Level FlightAware ADS-B
01:54AM 51.2763 -0.2608 185° South 283 326 9,400 -780 Descending FlightAware ADS-B
01:54AM 51.2693 -0.2630 194° South 279 321 9,400  Level FlightAware ADS-B
01:55AM 51.2687 -0.2630 193° South 279 321 9,400  Level FlightAware ADS-B
01:55AM 51.2655 -0.2649 200° South 275 316 9,400 -720 Level FlightAware ADS-B
01:55AM 51.2582 -0.2699 209° Southwest 269 310 9,300 -540 Descending FlightAware ADS-B
01:55AM 51.2523 -0.2764 216° Southwest 265 305 9,300 -600 Level FlightAware ADS-B
01:55AM 51.2486 -0.2813 224° Southwest 260 299 9,200 -780 Descending FlightAware ADS-B
01:55AM 51.2452 -0.2871 230° Southwest 257 296 9,200  Level FlightAware ADS-B
01:55AM 51.2434 -0.2914 234° Southwest 253 291 9,200  Level FlightAware ADS-B (EGLW)
01:55AM 51.2427 -0.2929 235° Southwest 253 291 9,200  Level FlightAware ADS-B
01:55AM 51.2407 -0.2977 240° Southwest 251 289 9,200 -1,200 Level FlightAware ADS-B
01:55AM 51.2401 -0.2992 242° Southwest 250 288 9,100 -2,040 Descending FlightAware ADS-B (EGKA / ESH)
01:55AM 51.2391 -0.3026 244° Southwest 249 287 9,100  Level FlightAware ADS-B
01:55AM 51.2368 -0.3125 252° West 244 281 9,100  Level FlightAware ADS-B
01:55AM 51.2357 -0.3194 258° West 241 277 9,100 -780 Level FlightAware ADS-B
01:55AM 51.2351 -0.3264 263° West 240 276 9,000 -780 Descending FlightAware ADS-B
01:55AM 51.2348 -0.3335 267° West 238 274 9,000  Level FlightAware ADS-B
01:55AM 51.2348 -0.3352 271° West 237 273 9,000  Level FlightAware ADS-B
01:55AM 51.2349 -0.3388 272° West 237 273 9,000 -1,020 Level FlightAware ADS-B
01:55AM 51.2353 -0.3458 277° West 236 272 8,900 -1,200 Descending FlightAware ADS-B
01:55AM 51.2356 -0.3491 280° West 236 272 8,900  Level FlightAware ADS-B (EGLF / FAB)
01:56AM 51.2365 -0.3542 284° West 235 270 8,900  Level FlightAware ADS-B
01:56AM 51.2366 -0.3559 286° West 235 270 8,900  Level FlightAware ADS-B
01:56AM 51.2363 -0.3542 285° West 234 269 8,900  Level FlightAware ADS-B (EGKA / ESH)
01:56AM 51.2376 -0.3608 289° West 234 269 8,900 -1,500 Level FlightAware ADS-B
01:56AM 51.2380 -0.3625 292° West 234 269 8,800 -2,040 Descending FlightAware ADS-B
01:56AM 51.2389 -0.3656 293° West 233 268 8,800  Level FlightAware ADS-B
01:56AM 51.2404 -0.3703 297° West 233 268 8,800  Level FlightAware ADS-B
01:56AM 51.2424 -0.3762 302° West 234 269 8,800  Level FlightAware ADS-B
01:56AM 51.2436 -0.3791 305° West 234 269 8,800  Level FlightAware ADS-B (EGLF / FAB)
01:56AM 51.2443 -0.3806 306° West 233 268 8,800 -2,040 Level FlightAware ADS-B
01:56AM 51.2456 -0.3833 310° West 234 269 8,700 -2,040 Descending FlightAware ADS-B (EGLW)
01:56AM 51.2467 -0.3859 310° West 234 269 8,700  Level FlightAware ADS-B
01:56AM 51.2497 -0.3909 315° West 235 270 8,700  Level FlightAware ADS-B
01:56AM 51.2497 -0.3909 318° Northwest 236 272 8,700 -1,500 Level FlightAware ADS-B (EGLF / FAB)
01:56AM 51.2524 -0.3944 320° Northwest 236 272 8,600 -1,020 Descending FlightAware ADS-B
01:56AM 51.2556 -0.3975 324° Northwest 237 273 8,600  Level FlightAware ADS-B
01:56AM 51.2564 -0.3986 326° Northwest 237 273 8,600 -600 Level FlightAware ADS-B (EGLF / FAB)
01:56AM 51.2655 -0.4077 329° Northwest 239 275 8,500 -960 Descending FlightAware ADS-B
01:56AM 51.2689 -0.4113 329° Northwest 239 275 8,400 -720 Descending FlightAware ADS-B
01:56AM 51.2743 -0.4160 329° Northwest 241 277 8,400 -540 Level FlightAware ADS-B
01:57AM 51.2802 -0.4216 329° Northwest 241 277 8,300 -720 Descending FlightAware ADS-B
01:57AM 51.2823 -0.4244 329° Northwest 241 277 8,300 -600 Level FlightAware ADS-B (EGLW)
01:57AM 51.2890 -0.4309 329° Northwest 242 278 8,200 -600 Descending FlightAware ADS-B
01:57AM 51.2927 -0.4345 328° Northwest 234 269 8,200  Level FlightAware ADS-B (EGHO)
01:57AM 51.2951 -0.4364 329° Northwest 240 276 8,200 -420 Level FlightAware ADS-B
01:57AM 51.3060 -0.4474 329° Northwest 237 273 8,100 -480 Descending FlightAware ADS-B
01:57AM 51.3076 -0.4482 329° Northwest 237 273 8,100  Level FlightAware ADS-B
01:57AM 51.3131 -0.4531 336° Northwest 238 274 8,100  Level FlightAware ADS-B (EGLF / FAB)
01:57AM 51.3148 -0.4544 338° Northwest 239 275 8,100  Level FlightAware ADS-B
01:57AM 51.3164 -0.4550 342° North 240 276 8,100  Level FlightAware ADS-B
01:57AM 51.3204 -0.4568 347° North 241 277 8,100  Level FlightAware ADS-B
01:57AM 51.3240 -0.4575 354° North 243 280 8,100  Level FlightAware ADS-B
01:57AM 51.3285 -0.4579 359° North 244 281 8,100  Level FlightAware ADS-B
01:57AM 51.3323 -0.4579 North 246 283 8,100  Level FlightAware ADS-B
01:57AM 51.3329 -0.4579 North 247 284 8,100  Level FlightAware ADS-B
01:58AM 51.3453 -0.4568 North 248 285 8,100 -480 Level FlightAware ADS-B
01:58AM 51.3497 -0.4564 North 247 284 8,000 -1,200 Descending FlightAware ADS-B
01:58AM 51.3507 -0.4563 North 247 284 8,000  Level FlightAware ADS-B
01:58AM 51.3627 -0.4553 North 244 281 8,000 -600 Level FlightAware ADS-B
01:58AM 51.3668 -0.4546 North 245 282 7,900 -1,200 Descending FlightAware ADS-B
01:58AM 51.3680 -0.4543 North 246 283 7,900 -780 Level FlightAware ADS-B
01:58AM 51.3726 -0.4530 14° North 248 285 7,800 -1,200 Descending FlightAware ADS-B
01:58AM 51.3737 -0.4524 15° North 249 287 7,800  Level FlightAware ADS-B (EGLF / FAB)
01:58AM 51.3759 -0.4513 19° North 250 288 7,800  Level FlightAware ADS-B
01:58AM 51.3781 -0.4500 25° Northeast 253 291 7,800 -2,040 Level FlightAware ADS-B (EGLW)
01:58AM 51.3793 -0.4492 25° Northeast 253 291 7,700 -2,040 Descending FlightAware ADS-B
01:58AM 51.3771 -0.4507 27° Northeast 251 289 7,700  Level FlightAware ADS-B (EGLF / FAB)
01:58AM 51.3832 -0.4456 31° Northeast 255 293 7,700  Level FlightAware ADS-B
01:58AM 51.3841 -0.4446 32° Northeast 257 296 7,700 -2,040 Level FlightAware ADS-B
01:58AM 51.3864 -0.4423 38° Northeast 259 298 7,600 -1,500 Descending FlightAware ADS-B
01:58AM 51.3883 -0.4397 42° Northeast 261 300 7,600  Level FlightAware ADS-B (EGLC / LCY)
01:58AM 51.3886 -0.4384 42° Northeast 261 300 7,600 -1,200 Level FlightAware ADS-B
01:58AM 51.3919 -0.4326 51° Northeast 265 305 7,500 -1,200 Descending FlightAware ADS-B
01:58AM 51.3919 -0.4326 53° Northeast 267 307 7,500 -1,500 Level FlightAware ADS-B
01:58AM 51.3952 -0.4244 59° Northeast 269 310 7,400 -1,500 Descending FlightAware ADS-B
01:58AM 51.3940 -0.4279 63° Northeast 271 312 7,400  Level FlightAware ADS-B (EGLW)
01:58AM 51.3952 -0.4244 58° Northeast 270 311 7,400  Level FlightAware ADS-B
01:58AM 51.3973 -0.4190 66° East 272 313 7,400 -1,200 Level FlightAware ADS-B
01:58AM 51.3986 -0.4115 73° East 276 318 7,300 -1,020 Descending FlightAware ADS-B
01:59AM 51.3928 -0.4311 79° East 277 319 7,300  Level FlightAware ADS-B (EGLC / LCY)
01:59AM 51.3995 -0.4054 78° East 278 320 7,300 -1,500 Level FlightAware ADS-B
01:59AM 51.4001 -0.3994 84° East 278 320 7,200 -1,200 Descending FlightAware ADS-B
01:59AM 51.4000 -0.3994 88° East 279 321 7,200  Level FlightAware ADS-B (EGWE)
01:59AM 51.4002 -0.3932 89° East 280 322 7,200 -780 Level FlightAware ADS-B
01:59AM 51.3992 -0.3787 102° East 282 325 7,100 -600 Descending FlightAware ADS-B
01:59AM 51.3979 -0.3707 104° East 283 326 7,100 -900 Level FlightAware ADS-B
01:59AM 51.3963 -0.3649 114° Southeast 283 326 7,000 -1,500 Descending FlightAware ADS-B
01:59AM 51.3961 -0.3649 111° Southeast 283 326 7,000  Level FlightAware ADS-B
01:59AM 51.3938 -0.3576 121° Southeast 283 326 7,000  Level FlightAware ADS-B
01:59AM 51.3979 -0.3707 126° Southeast 283 326 7,000  Level FlightAware ADS-B (EGLC / LCY)
01:59AM 51.3894 -0.3471 127° Southeast 283 326 7,000  Level FlightAware ADS-B
01:59AM 51.3890 -0.3472 126° Southeast 284 327 7,000  Level FlightAware ADS-B
01:59AM 51.3781 -0.3244 130° Southeast 285 328 7,000  Level FlightAware ADS-B (EGLW)
01:59AM 51.3767 -0.3229 130° Southeast 285 328 7,000  Level FlightAware ADS-B
01:59AM 51.3830 -0.3340 129° Southeast 285 328 7,000  Level FlightAware ADS-B
01:59AM 51.3720 -0.3130 127° Southeast 286 329 7,000  Level FlightAware ADS-B
01:59AM 51.3713 -0.3113 126° Southeast 281 323 7,000  Level FlightAware ADS-B (EGHO)
01:59AM 51.3691 -0.3059 122° Southeast 286 329 7,000  Level FlightAware ADS-B
02:00AM 51.3665 -0.2985 115° Southeast 288 331 7,000  Level FlightAware ADS-B
02:00AM 51.3651 -0.2925 110° East 287 330 7,000  Level FlightAware ADS-B
02:00AM 51.3638 -0.2845 105° East 286 329 7,000  Level FlightAware ADS-B
02:00AM 51.3630 -0.2760 98° East 285 328 7,000  Level FlightAware ADS-B
02:00AM 51.3627 -0.2678 92° East 283 326 7,000  Level FlightAware ADS-B
02:00AM 51.3627 -0.2657 101° East 286 329 7,000 -1,020 Level FlightAware ADS-B (EGLC / LCY)
02:00AM 51.3630 -0.2574 86° East 280 322 6,900 -720 Descending FlightAware ADS-B
02:00AM 51.3638 -0.2451 82° East 279 321 6,900 -600 Level FlightAware ADS-B
02:00AM 51.3647 -0.2370 80° East 277 319 6,800 -1,140 Descending FlightAware ADS-B (EGKA / ESH)
02:00AM 51.3673 -0.2128 80° East 276 318 6,600 -780 Descending FlightAware ADS-B
02:00AM 51.3682 -0.2046 80° East 276 318 6,600 -840 Level FlightAware ADS-B (EGLF / FAB)
02:00AM 51.3707 -0.1826 80° East 277 319 6,400 -1,140 Descending FlightAware ADS-B
02:01AM 51.3718 -0.1725 82° East 276 318 6,300 -1,500 Descending FlightAware ADS-B (EGHO)
02:01AM 51.3723 -0.1664 81° East 278 320 6,200 -1,140 Descending FlightAware ADS-B
02:01AM 51.3740 -0.1503 80° East 275 316 6,100 -600 Descending FlightAware ADS-B
02:01AM 51.3768 -0.1246 81° East 266 306 6,000 -420 Descending FlightAware ADS-B (EGLF / FAB)
02:01AM 51.3772 -0.1208 81° East 265 305 6,000 -960 Level FlightAware ADS-B
02:01AM 51.3794 -0.0998 83° East 255 293 5,800 -960 Descending FlightAware ADS-B (EGHO)
02:01AM 51.3797 -0.0961 81° East 254 292 5,800 -420 Level FlightAware ADS-B
02:01AM 51.3826 -0.0672 81° East 241 277 5,700 -420 Descending FlightAware ADS-B
02:01AM 51.3825 -0.0690 81° East 241 277 5,700 -780 Level FlightAware ADS-B (EGLF / FAB)
02:02AM 51.3852 -0.0414 81° East 233 268 5,500 -840 Descending FlightAware ADS-B
02:02AM 51.3876 -0.0160 81° East 229 264 5,300 -780 Descending FlightAware ADS-B
02:02AM 51.3878 -0.0145 81° East 229 264 5,300 -420 Level FlightAware ADS-B (EGHO)
02:02AM 51.3899 0.0090 81° East 228 262 5,200 -360 Descending FlightAware ADS-B
02:02AM 51.3907 0.0156 80° East 227 261 5,200  Level FlightAware ADS-B
02:02AM 51.3913 0.0189 79° East 226 260 5,200 -1,020 Level FlightAware ADS-B
02:02AM 51.3919 0.0237 73° East 224 258 5,100 -900 Descending FlightAware ADS-B (EGLC / LCY)
02:02AM 51.3934 0.0299 68° East 222 255 5,100  Level FlightAware ADS-B
02:03AM 51.3946 0.0343 61° Northeast 218 251 5,100  Level FlightAware ADS-B (EGLW)
02:03AM 51.3954 0.0356 59° Northeast 217 250 5,100 -2,040 Level FlightAware ADS-B
02:03AM 51.3954 0.0356 52° Northeast 213 245 5,000 -1,020 Descending FlightAware ADS-B (EGLC / LCY)
02:03AM 51.3992 0.0431 47° Northeast 211 243 5,000  Level FlightAware ADS-B
02:03AM 51.3994 0.0441 45° Northeast 210 242 5,000  Level FlightAware ADS-B
02:03AM 51.4025 0.0478 35° Northeast 204 235 5,000  Level FlightAware ADS-B
02:03AM 51.4050 0.0500 28° Northeast 198 228 5,000 -900 Level FlightAware ADS-B
02:03AM 51.4076 0.0516 19° North 192 221 4,900 -780 Descending FlightAware ADS-B
02:03AM 51.4122 0.0532 10° North 186 214 4,900  Level FlightAware ADS-B
02:03AM 51.4135 0.0537 North 185 213 4,900  Level FlightAware ADS-B
02:03AM 51.4151 0.0540 North 183 211 4,900  Level FlightAware ADS-B
02:03AM 51.4160 0.0540 North 181 208 4,900 -1,200 Level FlightAware ADS-B (EGLF / FAB)
02:03AM 51.4192 0.0537 357° North 178 205 4,800 -900 Descending FlightAware ADS-B
02:03AM 51.4216 0.0529 344° North 171 197 4,800  Level FlightAware ADS-B
02:03AM 51.4251 0.0504 330° Northwest 164 189 4,800 -780 Level FlightAware ADS-B
02:03AM 51.4270 0.0483 321° Northwest 162 186 4,700 -1,200 Descending FlightAware ADS-B
02:03AM 51.4283 0.0468 315° West 161 185 4,700  Level FlightAware ADS-B
02:03AM 51.4297 0.0441 310° West 160 184 4,700  Level FlightAware ADS-B
02:03AM 51.4277 0.0475 308° West 160 184 4,700  Level FlightAware ADS-B (EGLF / FAB)
02:03AM 51.4318 0.0393 302° West 158 182 4,700 -900 Level FlightAware ADS-B
02:03AM 51.4322 0.0383 299° West 158 182 4,600 -600 Descending FlightAware ADS-B (EGLC / LCY)
02:04AM 51.4354 0.0290 296° West 156 180 4,600 -480 Level FlightAware ADS-B (EGHO)
02:04AM 51.4374 0.0227 298° West 162 186 4,500 -420 Descending FlightAware ADS-B
02:04AM 51.4409 0.0122 299° West 162 186 4,500 -360 Level FlightAware ADS-B
02:04AM 51.4440 0.0039 299° West 161 185 4,400 -420 Descending FlightAware ADS-B
02:04AM 51.4465 -0.0033 300° West 161 185 4,400 -420 Level FlightAware ADS-B (EGLC / LCY)
02:04AM 51.4500 -0.0125 300° West 161 185 4,300 -420 Descending FlightAware ADS-B
02:04AM 51.4519 -0.0178 300° West 161 185 4,300  Level FlightAware ADS-B
02:04AM 51.4557 -0.0282 301° West 161 185 4,300 -420 Level FlightAware ADS-B
02:05AM 51.4576 -0.0332 301° West 161 185 4,200 -600 Descending FlightAware ADS-B (EGLC / LCY)
02:05AM 51.4591 -0.0373 300° West 161 185 4,200  Level FlightAware ADS-B
02:05AM 51.4606 -0.0415 299° West 161 185 4,200  Level FlightAware ADS-B
02:05AM 51.4615 -0.0446 299° West 160 184 4,200  Level FlightAware ADS-B (EGLF / FAB)
02:05AM 51.4623 -0.0468 296° West 161 185 4,200  Level FlightAware ADS-B
02:05AM 51.4631 -0.0500 292° West 160 184 4,200 -1,020 Level FlightAware ADS-B
02:05AM 51.4640 -0.0534 287° West 159 183 4,100 -1,500 Descending FlightAware ADS-B
02:05AM 51.4642 -0.0556 283° West 159 183 4,100  Level FlightAware ADS-B (EGLC / LCY)
02:05AM 51.4646 -0.0579 280° West 159 183 4,100  Level FlightAware ADS-B
02:05AM 51.4647 -0.0591 276° West 158 182 4,100  Level FlightAware ADS-B (EGHO)
02:05AM 51.4651 -0.0650 274° West 158 182 4,100  Level FlightAware ADS-B
02:05AM 51.4650 -0.0638 272° West 159 183 4,100  Level FlightAware ADS-B (EGLF / FAB)
02:05AM 51.4652 -0.0732 271° West 159 183 4,100 -480 Level FlightAware ADS-B
02:05AM 51.4653 -0.0768 271° West 160 184 4,000 -420 Descending FlightAware ADS-B
02:05AM 51.4654 -0.0922 271° West 161 185 4,000 -360 Level FlightAware ADS-B
02:06AM 51.4655 -0.1066 270° West 160 184 3,900 -420 Descending FlightAware ADS-B (EGLW)
02:06AM 51.4655 -0.1102 270° West 159 183 3,900 -720 Level FlightAware ADS-B
02:06AM 51.4655 -0.1266 270° West 156 180 3,700 -1,140 Descending FlightAware ADS-B (EGLC / LCY)
02:06AM 51.4655 -0.1289 270° West 155 178 3,600 -1,200 Descending FlightAware ADS-B
02:06AM 51.4655 -0.1434 270° West 145 167 3,400 -840 Descending FlightAware ADS-B (EGLC / LCY)
02:06AM 51.4655 -0.1456 270° West 143 165 3,400 -840 Level FlightAware ADS-B
02:06AM 51.4655 -0.1589 270° West 136 157 3,200 -840 Descending FlightAware ADS-B (EGLC / LCY)
02:06AM 51.4654 -0.1610 270° West 136 157 3,200 -720 Level FlightAware ADS-B
02:07AM 51.4654 -0.1771 270° West 136 157 3,000 -600 Descending FlightAware ADS-B
02:07AM 51.4654 -0.1924 270° West 138 159 2,900 -720 Descending FlightAware ADS-B
02:07AM 51.4654 -0.1935 270° West 139 160 2,800 -1,020 Descending FlightAware ADS-B (EGLC / LCY)
02:07AM 51.4654 -0.1987 270° West 140 161 2,800 -840 Level FlightAware ADS-B
02:07AM 51.4654 -0.2102 270° West 141 162 2,600 -1,080 Descending FlightAware ADS-B (EGLC / LCY)
02:07AM 51.4654 -0.2164 270° West 140 161 2,500 -840 Descending FlightAware ADS-B
02:07AM 51.4654 -0.2247 270° West 138 159 2,400 -720 Descending FlightAware ADS-B (EGLC / LCY)
02:08AM 51.4654 -0.2348 270° West 136 157 2,300 -660 Descending FlightAware ADS-B
02:08AM 51.4654 -0.2439 270° West 136 157 2,200 -720 Descending FlightAware ADS-B
02:08AM 51.4654 -0.2529 270° West 135 155 2,100 -720 Descending FlightAware ADS-B
02:08AM 51.4654 -0.2609 270° West 133 153 2,000 -780 Descending FlightAware ADS-B (EGLC / LCY)
02:08AM 51.4654 -0.2688 270° West 132 152 1,900 -720 Descending FlightAware ADS-B
02:08AM 51.4653 -0.2785 270° West 131 151 1,800 -720 Descending FlightAware ADS-B (EGLW)
02:09AM 51.4653 -0.2933 270° West 135 155 1,600 -780 Descending FlightAware ADS-B (EGLF / FAB)
02:09AM 51.4652 -0.3114 270° West 136 157 1,400 -540 Descending FlightAware ADS-B
02:09AM 51.4652 -0.3205 270° West 136 157 1,300 -780 Descending FlightAware ADS-B
02:09AM 51.4652 -0.3423 270° West 128 147 1,000 -900 Descending FlightAware ADS-B (EGLF / FAB)
02:10AM 51.4651 -0.3612 270° West 131 151 800 -780 Descending FlightAware ADS-B (EGLW)
02:10AM 51.4651 -0.3730 270° West 135 155 600 -900 Descending FlightAware ADS-B
02:10AM 51.4651 -0.3810 270° West 138 159 500 -900 Descending FlightAware ADS-B (EGLW)
02:10AM 51.4651 -0.3894 270° West 143 165 400 -600 Descending FlightAware ADS-B
02:10AM 51.4650 -0.3980 270° West 146 168 300 -840 Descending FlightAware ADS-B
02:11AM 51.4650 -0.4143 270° West 149 171 100 -1,140 Descending FlightAware ADS-B